| time (UTC) | temp C | wind direction | speed KPH | gust KPH | rain 1hr cm | rain 24hr cm | rain mn cm | humidity % | barometer mb |
| 20260505114558 | 6 | 207 | 3.2 | 12.9 | 0.00 | 0.03 | 0.03 | 68 | 1010.5 |
| 20260505113101 | 6 | 194 | 1.6 | 8.0 | 0.00 | 0.03 | 0.03 | 66 | 1010.7 |
| 20260505111602 | 6 | 197 | 1.6 | 6.4 | 0.00 | 0.03 | 0.03 | 66 | 1010.4 |
| 20260505110114 | 6 | 211 | 3.2 | 12.9 | 0.00 | 0.03 | 0.03 | 65 | 1010.4 |
| 20260505101604 | 6 | 304 | 3.2 | 11.3 | 0.00 | 0.03 | 0.03 | 67 | 1010.1 |
| 20260505100058 | 6 | 194 | 1.6 | 6.4 | 0.00 | 0.03 | 0.03 | 66 | 1010.0 |
| 20260505094556 | 6 | 207 | 3.2 | 9.7 | 0.00 | 0.03 | 0.03 | 65 | 1010.0 |
| 20260505093057 | 6 | 211 | 0.0 | 6.4 | 0.00 | 0.03 | 0.03 | 66 | 1010.0 |
| 20260505091600 | 6 | 320 | 1.6 | 8.0 | 0.00 | 0.03 | 0.03 | 66 | 1010.0 |
| 20260505090100 | 6 | 289 | 1.6 | 6.4 | 0.00 | 0.03 | 0.03 | 67 | 1010.0 |
| 20260505084605 | 6 | 198 | 0.0 | 6.4 | 0.00 | 0.05 | 0.03 | 70 | 1010.1 |
| 20260505083112 | 5 | 0 | 0.0 | 1.6 | 0.00 | 0.05 | 0.03 | 71 | 1010.3 |
| 20260505081608 | 5 | 0 | 0.0 | 0.0 | 0.00 | 0.05 | 0.03 | 71 | 1010.4 |
| 20260505080105 | 6 | 0 | 0.0 | 4.8 | 0.00 | 0.05 | 0.03 | 72 | 1010.5 |
| 20260505074600 | 6 | 0 | 0.0 | 0.0 | 0.00 | 0.05 | 0.03 | 70 | 1010.4 |
| 20260505073102 | 6 | 0 | 0.0 | 0.0 | 0.00 | 0.05 | 0.03 | 68 | 1010.2 |
| 20260505071558 | 7 | 0 | 0.0 | 3.2 | 0.00 | 0.05 | 0.03 | 67 | 1010.4 |
| 20260505070107 | 7 | 0 | 0.0 | 4.8 | 0.00 | 0.05 | 0.03 | 69 | 1010.2 |
| 20260505064653 | 7 | 331 | 1.6 | 8.0 | 0.03 | 0.05 | 0.03 | 68 | 1010.2 |
| 20260505063101 | 6 | 0 | 0.0 | 3.2 | 0.03 | 0.05 | 0.03 | 75 | 1010.0 |
| 20260505061625 | 6 | 0 | 0.0 | 0.0 | 0.03 | 0.05 | 0.03 | 74 | 1010.0 |
| 20260505054601 | 8 | 0 | 0.0 | 0.0 | 0.00 | 0.03 | 0.03 | 63 | 1009.8 |
| 20260505053059 | 8 | 0 | 0.0 | 0.0 | 0.00 | 0.03 | 0.03 | 63 | 1009.6 |
| 20260505051600 | 9 | 0 | 0.0 | 0.0 | 0.00 | 0.03 | 0.03 | 61 | 1009.6 |
| 20260505050109 | 9 | 0 | 0.0 | 0.0 | 0.00 | 0.03 | 0.03 | 62 | 1009.6 |
| 20260505041608 | 11 | 0 | 0.0 | 3.2 | 0.00 | 0.03 | 0.03 | 55 | 1009.2 |
| 20260505040106 | 12 | 0 | 0.0 | 3.2 | 0.00 | 0.03 | 0.03 | 53 | 1008.9 |
| 20260505034612 | 12 | 0 | 0.0 | 3.2 | 0.00 | 0.03 | 0.03 | 55 | 1008.5 |
| 20260505033058 | 12 | 0 | 0.0 | 0.0 | 0.00 | 0.03 | 0.03 | 52 | 1008.2 |
| 20260505031608 | 12 | 0 | 0.0 | 0.0 | 0.00 | 0.03 | 0.03 | 49 | 1007.9 |
| 20260505030119 | 13 | 0 | 0.0 | 0.0 | 0.00 | 0.03 | 0.03 | 46 | 1007.8 |
| 20260505024611 | 14 | 0 | 0.0 | 0.0 | 0.00 | 0.03 | 0.03 | 44 | 1007.7 |
| 20260505023100 | 15 | 0 | 0.0 | 0.0 | 0.00 | 0.03 | 0.03 | 43 | 1007.6 |
| 20260505021601 | 16 | 0 | 0.0 | 0.0 | 0.00 | 0.03 | 0.03 | 40 | 1007.5 |
| 20260505020107 | 17 | 0 | 0.0 | 0.0 | 0.00 | 0.03 | 0.03 | 34 | 1007.3 |
| 20260505014600 | 18 | 0 | 0.0 | 1.6 | 0.00 | 0.03 | 0.03 | 33 | 1007.3 |
| 20260505013058 | 18 | 0 | 0.0 | 1.6 | 0.00 | 0.03 | 0.03 | 32 | 1007.4 |
| 20260505011602 | 19 | 0 | 0.0 | 3.2 | 0.00 | 0.03 | 0.03 | 32 | 1007.4 |
| 20260505010112 | 20 | 0 | 0.0 | 6.4 | 0.00 | 0.03 | 0.03 | 31 | 1007.3 |
| 20260505004629 | 20 | 154 | 0.0 | 3.2 | 0.00 | 0.03 | 0.03 | 30 | 1007.4 |
| 20260505003101 | 18 | 138 | 0.0 | 3.2 | 0.00 | 0.03 | 0.03 | 32 | 1007.5 |
| 20260505001557 | 18 | 0 | 0.0 | 4.8 | 0.00 | 0.03 | 0.03 | 33 | 1007.6 |
| 20260505000112 | 18 | 213 | 0.0 | 6.4 | 0.00 | 0.03 | 0.03 | 32 | 1007.6 |
| 20260504234558 | 18 | 346 | 0.0 | 8.0 | 0.00 | 0.03 | 0.03 | 31 | 1007.5 |
| 20260504233059 | 18 | 0 | 1.6 | 8.0 | 0.00 | 0.03 | 0.03 | 34 | 1007.5 |
| 20260504231625 | 19 | 349 | 1.6 | 14.5 | 0.00 | 0.03 | 0.03 | 36 | 1007.6 |
| 20260504230059 | 21 | 347 | 4.8 | 11.3 | 0.00 | 0.03 | 0.03 | 27 | 1007.3 |
| 20260504224606 | 20 | 0 | 1.6 | 6.4 | 0.00 | 0.03 | 0.03 | 32 | 1007.3 |
| 20260504223058 | 20 | 0 | 1.6 | 6.4 | 0.00 | 0.03 | 0.03 | 32 | 1007.7 |
| 20260504221645 | 20 | 44 | 0.0 | 4.8 | 0.00 | 0.03 | 0.03 | 31 | 1007.7 |
| 20260504220058 | 21 | 305 | 4.8 | 14.5 | 0.00 | 0.03 | 0.03 | 29 | 1007.9 |
| 20260504214600 | 21 | 28 | 0.0 | 4.8 | 0.00 | 0.03 | 0.03 | 34 | 1008.0 |
| 20260504213102 | 20 | 351 | 0.0 | 6.4 | 0.00 | 0.03 | 0.03 | 31 | 1008.3 |
| 20260504211557 | 21 | 111 | 0.0 | 6.4 | 0.00 | 0.03 | 0.03 | 29 | 1008.6 |
| 20260504210100 | 20 | 0 | 0.0 | 8.0 | 0.00 | 0.03 | 0.03 | 31 | 1008.8 |
| 20260504204558 | 20 | 0 | 0.0 | 8.0 | 0.00 | 0.03 | 0.03 | 31 | 1009.1 |
| 20260504203057 | 18 | 0 | 0.0 | 4.8 | 0.00 | 0.03 | 0.03 | 34 | 1009.3 |
| 20260504201602 | 19 | 18 | 3.2 | 14.5 | 0.00 | 0.03 | 0.03 | 34 | 1009.6 |
| 20260504200056 | 20 | 0 | 1.6 | 6.4 | 0.00 | 0.03 | 0.03 | 30 | 1009.7 |
| 20260504194605 | 20 | 300 | 4.8 | 17.7 | 0.00 | 0.03 | 0.03 | 29 | 1009.8 |
| 20260504193059 | 20 | 300 | 3.2 | 14.5 | 0.00 | 0.03 | 0.03 | 29 | 1009.8 |
| 20260504191622 | 20 | 201 | 1.6 | 12.9 | 0.00 | 0.03 | 0.03 | 27 | 1010.1 |
| 20260504184606 | 20 | 304 | 3.2 | 11.3 | 0.00 | 0.03 | 0.03 | 28 | 1010.3 |
| 20260504183056 | 20 | 344 | 3.2 | 9.7 | 0.00 | 0.03 | 0.03 | 28 | 1010.3 |
| 20260504181559 | 20 | 349 | 1.6 | 12.9 | 0.00 | 0.03 | 0.03 | 28 | 1010.5 |
| 20260504180056 | 20 | 324 | 1.6 | 9.7 | 0.00 | 0.03 | 0.03 | 27 | 1010.6 |
| 20260504174559 | 19 | 0 | 0.0 | 12.9 | 0.00 | 0.03 | 0.03 | 29 | 1010.8 |
| 20260504173104 | 19 | 331 | 3.2 | 8.0 | 0.00 | 0.03 | 0.03 | 29 | 1010.9 |
| 20260504171558 | 18 | 336 | 1.6 | 6.4 | 0.00 | 0.03 | 0.03 | 29 | 1010.9 |
| 20260504140106 | 5 | 360 | 3.2 | 12.9 | 0.00 | 0.03 | 0.03 | 61 | 1012.7 |